Time;durP1;ratioP1;P1;durP2;ratioP2;P2;SDS_P1;SDS_P2;PMS_P1;PMS_P2;Temp;Humidity;BMP_temperature;BMP_pressure;BME280_temperature;BME280_humidity;BME280_pressure;Samples;Min_cycle;Max_cycle;Signal;HPM_P1;HPM_P2
2022/12/07 00:00:30;;;;;;;18.35;2.78;;;3.20;99.90;;;;;;5022193;28;20038;-59
2022/12/07 00:02:55;;;;;;;13.40;2.50;;;3.20;99.90;;;;;;5022277;28;20072;-58
2022/12/07 00:05:21;;;;;;;12.32;3.00;;;3.20;99.90;;;;;;5021472;28;20492;-58
2022/12/07 00:07:46;;;;;;;11.98;2.53;;;3.30;99.90;;;;;;5021552;28;20037;-58
2022/12/07 00:10:12;;;;;;;11.68;2.22;;;3.30;99.90;;;;;;5022587;28;20162;-58
2022/12/07 00:12:37;;;;;;;14.85;2.33;;;3.30;99.90;;;;;;5022648;28;20044;-58
2022/12/07 00:15:03;;;;;;;13.77;2.58;;;3.40;99.90;;;;;;5024341;28;20064;-58
2022/12/07 00:17:29;;;;;;;13.45;2.10;;;3.40;99.90;;;;;;5025802;28;20049;-58
2022/12/07 00:19:54;;;;;;;17.33;2.20;;;3.50;99.90;;;;;;5025188;28;20045;-58
2022/12/07 00:22:20;;;;;;;14.52;2.50;;;3.50;99.90;;;;;;5025641;28;20053;-58
2022/12/07 00:24:45;;;;;;;13.00;2.35;;;3.50;99.90;;;;;;5024983;28;20040;-58
2022/12/07 00:27:11;;;;;;;16.10;2.35;;;3.50;99.90;;;;;;5026086;28;20037;-58
2022/12/07 00:29:36;;;;;;;14.60;2.25;;;3.60;99.90;;;;;;5025619;28;20068;-58
2022/12/07 00:32:03;;;;;;;12.10;2.17;;;3.60;99.90;;;;;;5025585;28;20134;-57
2022/12/07 00:34:28;;;;;;;16.67;2.05;;;3.50;99.90;;;;;;5025254;28;20045;-57
2022/12/07 00:36:54;;;;;;;12.07;2.28;;;3.60;99.90;;;;;;5023616;28;20063;-58
2022/12/07 00:39:19;;;;;;;17.05;2.97;;;3.60;99.90;;;;;;5025973;28;20055;-59
2022/12/07 00:41:45;;;;;;;16.20;2.67;;;3.60;99.90;;;;;;5025841;28;20037;-58
2022/12/07 00:44:11;;;;;;;12.07;2.13;;;3.60;99.90;;;;;;5025411;28;20037;-58
2022/12/07 00:46:36;;;;;;;16.17;2.10;;;3.60;99.90;;;;;;5024807;28;20041;-57
2022/12/07 00:49:02;;;;;;;12.82;2.28;;;3.60;99.90;;;;;;5024697;28;20059;-58
2022/12/07 00:51:28;;;;;;;15.18;2.10;;;3.60;99.90;;;;;;5024784;28;20049;-56
2022/12/07 00:53:54;;;;;;;10.45;1.75;;;3.60;99.90;;;;;;5024999;28;20103;-58
2022/12/07 00:56:23;;;;;;;11.43;1.70;;;3.60;99.90;;;;;;5025179;28;20041;-58
2022/12/07 00:59:00;;;;;;;9.05;1.65;;;3.60;99.90;;;;;;5024681;28;20041;-58
2022/12/07 01:01:28;;;;;;;10.93;1.60;;;3.50;99.90;;;;;;5006406;28;20053;-58
2022/12/07 01:03:53;;;;;;;11.80;1.73;;;3.50;99.90;;;;;;5012678;28;20063;-58
2022/12/07 01:06:20;;;;;;;11.48;1.85;;;3.50;99.90;;;;;;5024067;28;20517;-57
2022/12/07 01:08:46;;;;;;;10.25;1.52;;;3.40;99.90;;;;;;5024556;28;20120;-58
2022/12/07 01:11:18;;;;;;;14.40;1.73;;;3.40;99.90;;;;;;5023693;28;20112;-58
2022/12/07 01:13:44;;;;;;;12.70;1.77;;;3.50;99.90;;;;;;5025143;28;20120;-57
2022/12/07 01:16:13;;;;;;;6.88;1.40;;;3.50;99.90;;;;;;5024752;28;20038;-57
2022/12/07 01:18:39;;;;;;;8.70;1.52;;;3.60;99.90;;;;;;5023528;28;20045;-58
2022/12/07 01:21:07;;;;;;;11.73;1.55;;;3.60;99.90;;;;;;5024730;28;20172;-58
2022/12/07 01:23:34;;;;;;;8.40;1.40;;;3.60;99.90;;;;;;5024084;28;20516;-57
2022/12/07 01:26:03;;;;;;;12.10;1.90;;;3.60;99.90;;;;;;5023881;28;20112;-57
2022/12/07 01:28:28;;;;;;;7.85;1.63;;;3.70;99.90;;;;;;5005170;28;20049;-57
2022/12/07 01:31:03;;;;;;;8.60;1.77;;;3.70;99.90;;;;;;5022151;28;20044;-58
2022/12/07 01:33:31;;;;;;;7.18;1.50;;;3.70;99.90;;;;;;5023608;28;20046;-58
2022/12/07 01:36:12;;;;;;;8.77;1.48;;;3.70;99.90;;;;;;5023924;28;20088;-57
2022/12/07 01:38:38;;;;;;;13.85;1.92;;;3.70;99.90;;;;;;5023775;28;20529;-58
2022/12/07 01:41:03;;;;;;;9.95;1.98;;;3.70;99.90;;;;;;5024160;28;20042;-58
2022/12/07 01:43:31;;;;;;;13.73;1.90;;;3.70;99.90;;;;;;5024186;28;20273;-58
2022/12/07 01:45:57;;;;;;;11.32;1.63;;;3.70;99.90;;;;;;5024248;28;20038;-57
2022/12/07 01:48:34;;;;;;;7.13;1.70;;;3.70;99.90;;;;;;5022720;28;20052;-57
2022/12/07 01:51:08;;;;;;;9.13;1.85;;;3.80;99.90;;;;;;5023782;28;20084;-57
2022/12/07 01:53:37;;;;;;;9.27;1.60;;;3.80;99.90;;;;;;5022000;28;20138;-58
2022/12/07 01:56:03;;;;;;;8.73;1.95;;;3.90;99.90;;;;;;5024678;28;20049;-58
2022/12/07 01:58:29;;;;;;;13.07;2.08;;;3.90;99.90;;;;;;5024640;28;20049;-58
2022/12/07 02:00:54;;;;;;;12.70;2.00;;;4.00;99.90;;;;;;5024096;28;20629;-59
2022/12/07 02:03:33;;;;;;;17.95;1.80;;;4.00;99.90;;;;;;5023241;28;20048;-60
2022/12/07 02:06:00;;;;;;;18.25;1.60;;;4.00;99.90;;;;;;5022302;28;20053;-60
2022/12/07 02:08:26;;;;;;;5.72;1.65;;;4.00;99.90;;;;;;5023725;28;20037;-58
2022/12/07 02:10:51;;;;;;;9.50;1.60;;;4.00;99.90;;;;;;5024182;28;20392;-58
2022/12/07 02:13:24;;;;;;;9.13;1.55;;;4.00;99.90;;;;;;5023769;28;20037;-57
2022/12/07 02:16:11;;;;;;;7.15;1.40;;;4.00;99.90;;;;;;5023968;28;20126;-58
2022/12/07 02:19:09;;;;;;;10.07;1.65;;;4.00;99.90;;;;;;5022156;28;20085;-59
2022/12/07 02:21:51;;;;;;;10.63;1.60;;;4.00;99.90;;;;;;5023484;28;20116;-58
2022/12/07 02:24:34;;;;;;;15.18;1.75;;;3.90;99.90;;;;;;5024044;28;20084;-57
2022/12/07 02:27:23;;;;;;;8.48;1.63;;;3.80;99.90;;;;;;5024807;28;20045;-59
2022/12/07 02:30:00;;;;;;;8.88;1.50;;;3.80;99.90;;;;;;5023674;28;20045;-58
2022/12/07 02:32:57;;;;;;;16.48;1.80;;;3.70;99.90;;;;;;5023771;28;20041;-57
2022/12/07 02:35:33;;;;;;;11.75;1.70;;;3.60;99.90;;;;;;5022865;28;20041;-59
2022/12/07 02:38:12;;;;;;;10.55;1.58;;;3.60;99.90;;;;;;5023260;28;20120;-58
2022/12/07 02:40:43;;;;;;;11.30;1.38;;;3.50;99.90;;;;;;5023576;28;20089;-58
2022/12/07 02:43:22;;;;;;;12.68;2.03;;;3.40;99.90;;;;;;5022217;28;20053;-58
2022/12/07 02:45:49;;;;;;;11.30;1.92;;;3.40;99.90;;;;;;5023208;28;20041;-58
2022/12/07 02:48:18;;;;;;;14.52;1.52;;;3.40;99.90;;;;;;5022124;28;20059;-59
2022/12/07 02:50:51;;;;;;;11.30;1.58;;;3.30;99.90;;;;;;5022418;28;20057;-59
2022/12/07 02:53:31;;;;;;;13.30;1.70;;;3.30;99.90;;;;;;5023295;28;20068;-59
2022/12/07 02:55:57;;;;;;;14.48;1.50;;;3.30;99.90;;;;;;5022889;28;20389;-59
2022/12/07 02:58:53;;;;;;;10.77;1.75;;;3.30;99.90;;;;;;5022766;28;20037;-58
2022/12/07 03:01:35;;;;;;;16.40;2.40;;;3.30;99.90;;;;;;5022315;28;20189;-61
2022/12/07 03:04:36;;;;;;;9.10;1.88;;;3.40;99.90;;;;;;5011010;28;20076;-59
2022/12/07 03:07:18;;;;;;;6.57;1.77;;;3.50;99.90;;;;;;5021861;28;20080;-59
2022/12/07 03:09:55;;;;;;;10.13;1.52;;;3.60;99.90;;;;;;5021284;28;20111;-58
2022/12/07 03:12:35;;;;;;;9.60;1.65;;;3.70;99.90;;;;;;5023168;28;20033;-58
2022/12/07 03:15:09;;;;;;;15.32;1.73;;;3.80;99.90;;;;;;5022144;28;20081;-59
2022/12/07 03:17:39;;;;;;;8.93;1.70;;;3.80;99.90;;;;;;5021877;28;20053;-59
2022/12/07 03:20:07;;;;;;;12.52;1.52;;;3.80;99.90;;;;;;5021131;28;20528;-59
2022/12/07 03:22:35;;;;;;;10.80;1.80;;;3.80;99.90;;;;;;5002361;28;20430;-59
2022/12/07 03:25:06;;;;;;;9.63;2.03;;;3.80;99.90;;;;;;5002838;28;20073;-58
2022/12/07 03:27:41;;;;;;;11.88;1.75;;;3.80;99.90;;;;;;5003438;28;20083;-60
2022/12/07 03:30:12;;;;;;;9.23;1.55;;;3.80;99.90;;;;;;5020448;28;20075;-58
2022/12/07 03:32:48;;;;;;;9.73;1.50;;;3.70;99.90;;;;;;5022601;28;20103;-58
2022/12/07 03:35:22;;;;;;;10.80;1.75;;;3.70;99.90;;;;;;5021454;28;20042;-58
2022/12/07 03:37:54;;;;;;;7.90;1.15;;;3.70;99.90;;;;;;5022382;28;20049;-57
2022/12/07 03:40:34;;;;;;;19.20;2.00;;;3.70;99.90;;;;;;5022478;28;20049;-58
2022/12/07 03:43:02;;;;;;;18.15;1.92;;;3.60;99.90;;;;;;5023266;28;20049;-60
2022/12/07 03:46:09;;;;;;;11.70;1.73;;;3.70;99.90;;;;;;5022542;28;20044;-60
2022/12/07 03:48:46;;;;;;;10.98;1.33;;;3.70;99.90;;;;;;5021712;28;20061;-60
2022/12/07 03:51:44;;;;;;;13.32;2.08;;;3.70;99.90;;;;;;5025887;28;20050;-59
2022/12/07 03:54:35;;;;;;;9.57;1.83;;;3.70;99.90;;;;;;5040914;28;20353;-60
2022/12/07 03:57:02;;;;;;;12.80;1.73;;;3.70;99.90;;;;;;5026966;28;20049;-60
2022/12/07 03:59:29;;;;;;;13.98;2.70;;;3.70;99.90;;;;;;5025766;28;20033;-57
2022/12/07 04:01:57;;;;;;;14.95;1.88;;;3.70;99.90;;;;;;5026280;28;20053;-60
2022/12/07 04:04:26;;;;;;;13.27;1.70;;;3.70;99.90;;;;;;5025706;28;20100;-58
2022/12/07 04:06:51;;;;;;;11.98;2.75;;;3.70;99.90;;;;;;5025276;28;20095;-60
2022/12/07 04:09:17;;;;;;;13.40;4.07;;;3.70;99.90;;;;;;5025887;28;20524;-58
2022/12/07 04:11:43;;;;;;;7.88;2.00;;;3.60;99.90;;;;;;5025768;28;20041;-58
2022/12/07 04:14:18;;;;;;;13.70;3.75;;;3.60;99.90;;;;;;5026301;28;20049;-59
2022/12/07 04:16:58;;;;;;;10.95;1.55;;;3.60;99.90;;;;;;5026175;28;20091;-58
2022/12/07 04:19:26;;;;;;;12.88;1.77;;;3.60;99.90;;;;;;5025429;28;20505;-60
2022/12/07 04:21:52;;;;;;;11.65;1.55;;;3.60;99.90;;;;;;5024266;28;20060;-58
2022/12/07 04:24:18;;;;;;;11.43;1.27;;;3.60;99.90;;;;;;5025919;28;20041;-59
2022/12/07 04:26:44;;;;;;;10.00;1.60;;;3.50;99.90;;;;;;5026395;28;20045;-60
2022/12/07 04:29:09;;;;;;;12.38;1.50;;;3.50;99.90;;;;;;5025991;28;20120;-57
2022/12/07 04:31:36;;;;;;;8.43;1.50;;;3.50;99.90;;;;;;5024752;28;20046;-57
2022/12/07 04:34:02;;;;;;;6.43;1.30;;;3.40;99.90;;;;;;5023835;28;20103;-59
2022/12/07 04:36:27;;;;;;;11.52;2.28;;;3.40;99.90;;;;;;5024324;28;20460;-57
2022/12/07 04:38:54;;;;;;;11.45;2.33;;;3.30;99.90;;;;;;5025381;28;20081;-58
2022/12/07 04:41:26;;;;;;;9.32;1.70;;;3.30;99.90;;;;;;5025595;28;20099;-58
2022/12/07 04:43:57;;;;;;;11.27;1.60;;;3.30;99.90;;;;;;5026297;28;20091;-59
2022/12/07 04:46:27;;;;;;;9.10;1.58;;;3.30;99.90;;;;;;5025539;28;20061;-58
2022/12/07 04:48:53;;;;;;;14.35;4.22;;;3.20;99.90;;;;;;5003790;28;20107;-60
2022/12/07 04:51:23;;;;;;;16.45;4.50;;;3.20;99.90;;;;;;5005509;28;20120;-59
2022/12/07 04:53:49;;;;;;;12.77;2.13;;;3.20;99.90;;;;;;5020641;28;20061;-60
2022/12/07 04:56:16;;;;;;;13.50;1.52;;;3.20;99.90;;;;;;5010219;28;20115;-59
2022/12/07 04:58:42;;;;;;;17.10;1.70;;;3.20;99.90;;;;;;5025404;28;20081;-59
2022/12/07 05:01:08;;;;;;;9.15;1.48;;;3.30;99.90;;;;;;5024479;28;20404;-58
2022/12/07 05:03:33;;;;;;;9.13;1.52;;;3.40;99.90;;;;;;5024295;28;20108;-60
2022/12/07 05:05:59;;;;;;;13.00;1.42;;;3.50;99.90;;;;;;5024691;28;20443;-60
2022/12/07 05:08:24;;;;;;;8.88;1.38;;;3.40;99.90;;;;;;5024563;28;20112;-60
2022/12/07 05:10:50;;;;;;;10.30;2.08;;;3.40;99.90;;;;;;5024739;28;20037;-59
2022/12/07 05:13:15;;;;;;;8.25;1.27;;;3.40;99.90;;;;;;5023832;28;20074;-60
2022/12/07 05:15:43;;;;;;;10.75;1.40;;;3.40;99.90;;;;;;5024852;28;20083;-59
2022/12/07 05:18:09;;;;;;;11.95;1.73;;;3.30;99.90;;;;;;5024177;28;20425;-57
2022/12/07 05:20:35;;;;;;;11.63;1.30;;;3.30;99.90;;;;;;5023823;28;20038;-59
2022/12/07 05:23:00;;;;;;;8.82;1.25;;;3.20;99.90;;;;;;5025476;28;20133;-60
2022/12/07 05:25:26;;;;;;;5.43;1.30;;;3.20;99.90;;;;;;5025130;28;20481;-59
2022/12/07 05:27:51;;;;;;;7.93;1.60;;;3.10;99.90;;;;;;5025021;28;20099;-59
2022/12/07 05:30:17;;;;;;;11.45;1.90;;;3.10;99.90;;;;;;5024703;28;20513;-59
2022/12/07 05:32:42;;;;;;;21.00;3.05;;;3.00;99.90;;;;;;5024738;28;20076;-61
2022/12/07 05:35:09;;;;;;;9.65;1.60;;;3.00;99.90;;;;;;5022144;28;20111;-59
2022/12/07 05:37:34;;;;;;;13.48;2.00;;;2.90;99.90;;;;;;5024679;28;20099;-59
2022/12/07 05:40:00;;;;;;;10.00;1.50;;;2.80;99.90;;;;;;5022796;28;20053;-59
2022/12/07 05:42:25;;;;;;;14.48;1.60;;;2.80;99.90;;;;;;5024898;28;20036;-57
2022/12/07 05:44:51;;;;;;;11.00;2.20;;;2.70;99.90;;;;;;5022784;28;20428;-60
2022/12/07 05:47:17;;;;;;;11.98;2.15;;;2.70;99.90;;;;;;5024063;28;20033;-58
2022/12/07 05:49:42;;;;;;;8.63;1.92;;;2.60;99.90;;;;;;5022410;28;20084;-60
2022/12/07 05:52:08;;;;;;;10.20;2.00;;;2.60;99.90;;;;;;5022252;28;20049;-60
2022/12/07 05:54:34;;;;;;;20.08;2.60;;;2.50;99.90;;;;;;5024338;28;20043;-58
2022/12/07 05:56:59;;;;;;;15.80;2.78;;;2.50;99.90;;;;;;5023897;28;20045;-58
2022/12/07 05:59:27;;;;;;;14.32;2.20;;;2.50;99.90;;;;;;5024364;28;20124;-59
2022/12/07 06:01:56;;;;;;;12.75;2.00;;;2.40;99.90;;;;;;5024360;28;20060;-59
2022/12/07 06:04:23;;;;;;;10.88;1.90;;;2.40;99.90;;;;;;5023308;28;20111;-59
2022/12/07 06:06:48;;;;;;;16.27;2.55;;;2.40;99.90;;;;;;5023353;28;20041;-59
2022/12/07 06:09:16;;;;;;;13.77;2.25;;;2.40;99.90;;;;;;5024535;28;20067;-58
2022/12/07 06:14:26;;;;;;;19.42;4.20;;;2.40;99.90;;;;;;5023065;28;20041;-59
2022/12/07 06:16:52;;;;;;;19.35;3.25;;;2.40;99.90;;;;;;5023372;28;20047;-60
2022/12/07 06:19:17;;;;;;;12.77;2.55;;;2.40;99.90;;;;;;5023397;28;20053;-58
2022/12/07 06:21:43;;;;;;;12.57;3.97;;;2.40;99.90;;;;;;5022084;28;20037;-56
2022/12/07 06:24:13;;;;;;;17.30;2.67;;;2.40;99.90;;;;;;5023438;28;20608;-58
2022/12/07 06:26:39;;;;;;;10.68;2.13;;;2.40;99.90;;;;;;5024106;28;20099;-58
2022/12/07 06:29:05;;;;;;;13.82;2.03;;;2.40;99.90;;;;;;5023693;28;20055;-58
2022/12/07 06:31:31;;;;;;;18.10;2.65;;;2.50;99.90;;;;;;5011535;28;20045;-60
2022/12/07 06:33:58;;;;;;;11.52;1.90;;;2.50;99.90;;;;;;5015515;28;20045;-59
2022/12/07 06:36:24;;;;;;;9.70;1.70;;;2.60;99.90;;;;;;5024628;28;20124;-58
2022/12/07 06:38:49;;;;;;;13.30;2.00;;;2.60;99.90;;;;;;5024396;28;20144;-58
2022/12/07 06:41:15;;;;;;;15.32;1.73;;;2.70;99.90;;;;;;5023458;28;20049;-59
2022/12/07 06:43:41;;;;;;;11.40;1.70;;;2.70;99.90;;;;;;5023595;28;20045;-57
2022/12/07 06:46:07;;;;;;;13.88;1.75;;;2.80;99.90;;;;;;5023532;28;20489;-59
2022/12/07 06:48:33;;;;;;;13.68;2.38;;;2.80;99.90;;;;;;5021661;28;20041;-58
2022/12/07 06:50:59;;;;;;;18.00;2.03;;;2.90;99.90;;;;;;5022577;28;20088;-57
2022/12/07 06:53:24;;;;;;;15.45;2.28;;;2.80;99.90;;;;;;5021754;28;20052;-57
2022/12/07 06:55:50;;;;;;;13.77;2.10;;;2.90;99.90;;;;;;5021964;28;20041;-58
2022/12/07 06:58:16;;;;;;;10.38;2.33;;;2.90;99.90;;;;;;5021555;28;20091;-57
2022/12/07 07:00:42;;;;;;;9.30;2.08;;;2.90;99.90;;;;;;5021889;28;20038;-59
2022/12/07 07:03:08;;;;;;;13.63;2.30;;;2.80;99.90;;;;;;5016281;28;20107;-58
2022/12/07 07:05:33;;;;;;;13.07;3.83;;;2.80;99.90;;;;;;5020785;28;20065;-57
2022/12/07 07:07:59;;;;;;;11.88;2.40;;;2.80;99.90;;;;;;5010002;28;20046;-57
2022/12/07 07:10:24;;;;;;;14.73;1.95;;;2.70;99.90;;;;;;5014534;28;20048;-58
2022/12/07 07:12:50;;;;;;;11.90;2.00;;;2.70;99.90;;;;;;5021496;28;20333;-58
2022/12/07 07:15:16;;;;;;;12.10;2.65;;;2.70;99.90;;;;;;5022370;28;20507;-59
2022/12/07 07:17:41;;;;;;;10.32;2.47;;;2.70;99.90;;;;;;5021028;28;20052;-59
2022/12/07 07:20:07;;;;;;;17.23;3.20;;;2.60;99.90;;;;;;5021775;28;20195;-59
2022/12/07 07:22:33;;;;;;;11.75;2.00;;;2.60;99.90;;;;;;5023489;28;20049;-59
2022/12/07 07:24:58;;;;;;;12.55;2.05;;;2.60;99.90;;;;;;5021777;28;20128;-59
2022/12/07 07:27:24;;;;;;;11.32;1.85;;;2.60;99.90;;;;;;5022174;28;20033;-61
2022/12/07 07:29:49;;;;;;;10.07;1.73;;;2.70;99.90;;;;;;5021697;28;20037;-59
2022/12/07 07:32:15;;;;;;;11.77;2.03;;;2.70;99.90;;;;;;5022505;28;20041;-61
2022/12/07 07:34:41;;;;;;;16.35;2.25;;;2.80;99.90;;;;;;5022576;28;20420;-61
2022/12/07 07:37:06;;;;;;;9.45;1.60;;;2.80;99.90;;;;;;5020665;28;20053;-61
2022/12/07 07:39:32;;;;;;;9.07;1.73;;;2.90;99.90;;;;;;5020401;28;20140;-59
2022/12/07 07:41:58;;;;;;;10.05;1.77;;;2.90;99.90;;;;;;5023039;28;20061;-62
2022/12/07 07:44:23;;;;;;;11.90;1.52;;;2.90;99.90;;;;;;5022938;28;20040;-60
2022/12/07 07:46:49;;;;;;;12.73;1.88;;;2.90;99.90;;;;;;5021193;28;20042;-60
2022/12/07 07:49:14;;;;;;;7.68;1.42;;;3.00;99.90;;;;;;5021080;28;20147;-60
2022/12/07 07:51:40;;;;;;;10.73;1.33;;;3.00;99.90;;;;;;5022142;28;20057;-59
2022/12/07 07:54:05;;;;;;;11.88;1.27;;;3.00;99.90;;;;;;5020168;28;20068;-59
2022/12/07 07:56:31;;;;;;;7.57;1.63;;;3.00;99.90;;;;;;5021376;28;20519;-60
2022/12/07 07:58:57;;;;;;;9.93;2.80;;;3.00;99.90;;;;;;5023147;28;20091;-59
2022/12/07 08:01:22;;;;;;;8.57;2.28;;;3.00;99.90;;;;;;5022134;28;20082;-59
2022/12/07 08:03:48;;;;;;;8.75;1.98;;;3.00;99.90;;;;;;5021936;28;20065;-60
2022/12/07 08:06:13;;;;;;;10.13;1.67;;;2.90;99.90;;;;;;5021852;28;20037;-59
2022/12/07 08:08:39;;;;;;;13.25;1.77;;;2.90;99.90;;;;;;5022647;28;20049;-60
2022/12/07 08:11:06;;;;;;;9.20;1.73;;;2.80;99.90;;;;;;5022717;28;20151;-60
2022/12/07 08:13:31;;;;;;;11.55;1.40;;;2.70;99.90;;;;;;5003817;28;20084;-58
2022/12/07 08:15:58;;;;;;;9.88;1.90;;;2.70;99.90;;;;;;5020980;28;20532;-59
2022/12/07 08:18:23;;;;;;;10.95;2.03;;;2.60;99.90;;;;;;5021085;28;20076;-59
2022/12/07 08:20:49;;;;;;;11.70;2.42;;;2.60;99.90;;;;;;5022434;28;20310;-59
2022/12/07 08:23:14;;;;;;;12.70;2.30;;;2.50;99.90;;;;;;5020588;28;20132;-59
2022/12/07 08:25:40;;;;;;;9.18;1.60;;;2.50;99.90;;;;;;5022098;28;20034;-60
2022/12/07 08:28:06;;;;;;;15.20;1.75;;;2.40;99.90;;;;;;5022287;28;20107;-61
2022/12/07 08:30:32;;;;;;;8.77;1.75;;;2.50;99.90;;;;;;5021774;28;20488;-58
2022/12/07 08:32:58;;;;;;;12.00;2.92;;;2.40;99.90;;;;;;5020891;28;20056;-59
2022/12/07 08:35:24;;;;;;;11.40;2.25;;;2.40;99.90;;;;;;5022790;28;20049;-57
2022/12/07 08:37:49;;;;;;;14.52;2.80;;;2.40;99.90;;;;;;5024524;28;20049;-60
2022/12/07 08:40:15;;;;;;;11.82;2.35;;;2.40;99.90;;;;;;5025884;28;20041;-60
2022/12/07 08:42:51;;;;;;;15.80;2.30;;;2.50;99.90;;;;;;5024820;28;20041;-60
2022/12/07 08:45:18;;;;;;;10.73;2.65;;;2.50;99.90;;;;;;5039934;28;20092;-59
2022/12/07 08:47:58;;;;;;;12.80;2.40;;;2.60;99.90;;;;;;5025217;28;20052;-58
2022/12/07 08:50:24;;;;;;;11.60;2.47;;;2.60;99.90;;;;;;5025300;28;20813;-59
2022/12/07 08:52:53;;;;;;;16.98;2.42;;;2.60;99.90;;;;;;5025504;28;20124;-59
2022/12/07 08:55:19;;;;;;;12.88;1.80;;;2.70;99.90;;;;;;5025564;28;20665;-59
2022/12/07 08:57:45;;;;;;;13.38;1.98;;;2.70;99.90;;;;;;5025033;28;20120;-59
2022/12/07 09:00:12;;;;;;;12.18;2.00;;;2.80;99.90;;;;;;5023611;28;20480;-58
2022/12/07 09:02:37;;;;;;;13.15;2.13;;;2.80;99.90;;;;;;5025805;28;20040;-58
2022/12/07 09:05:03;;;;;;;18.95;3.35;;;2.90;99.90;;;;;;5024717;28;20120;-59
2022/12/07 09:07:31;;;;;;;12.00;2.45;;;3.00;99.90;;;;;;5025316;28;20131;-59
2022/12/07 09:09:57;;;;;;;12.20;2.10;;;3.10;99.90;;;;;;5024148;28;20107;-59
2022/12/07 09:12:22;;;;;;;11.07;2.08;;;3.10;99.90;;;;;;5025445;28;20057;-58
2022/12/07 09:14:48;;;;;;;16.90;2.08;;;3.20;99.90;;;;;;5024869;28;20047;-58
2022/12/07 09:17:13;;;;;;;13.60;2.25;;;3.20;99.90;;;;;;5013456;28;20094;-58
2022/12/07 09:19:40;;;;;;;9.52;2.38;;;3.40;99.90;;;;;;5024175;28;20089;-59
2022/12/07 09:22:05;;;;;;;14.02;2.72;;;3.40;99.90;;;;;;5024782;28;20091;-59
2022/12/07 09:24:31;;;;;;;16.77;5.78;;;3.50;99.90;;;;;;5024476;28;20041;-57
2022/12/07 09:26:58;;;;;;;11.68;2.47;;;3.70;99.90;;;;;;5024912;28;20131;-59
2022/12/07 09:29:24;;;;;;;11.50;2.53;;;3.80;99.90;;;;;;5024073;28;20045;-59
2022/12/07 09:31:49;;;;;;;16.48;2.30;;;3.90;99.90;;;;;;5019667;28;20131;-59
2022/12/07 09:34:15;;;;;;;12.45;2.50;;;3.90;99.90;;;;;;5039202;28;20049;-59
2022/12/07 09:36:42;;;;;;;11.27;2.40;;;4.00;99.90;;;;;;5023810;28;20124;-58
2022/12/07 09:39:08;;;;;;;11.90;2.90;;;4.10;99.90;;;;;;5023751;28;20053;-57
2022/12/07 09:41:39;;;;;;;14.52;3.10;;;4.20;99.90;;;;;;5025755;28;20041;-59
2022/12/07 09:44:09;;;;;;;14.43;2.45;;;4.30;99.90;;;;;;5024694;28;20045;-57
2022/12/07 09:46:38;;;;;;;15.98;2.80;;;4.40;99.90;;;;;;5023297;28;20477;-58
2022/12/07 09:49:05;;;;;;;13.65;2.65;;;4.40;99.90;;;;;;5023718;28;20057;-58
2022/12/07 09:51:31;;;;;;;13.70;2.78;;;4.40;99.90;;;;;;5023942;28;20528;-57
2022/12/07 09:53:59;;;;;;;15.13;2.75;;;4.50;99.90;;;;;;5024117;28;20507;-58
2022/12/07 09:56:25;;;;;;;14.77;2.33;;;4.50;99.90;;;;;;5023701;28;20044;-59
2022/12/07 09:58:59;;;;;;;8.98;2.42;;;4.50;99.90;;;;;;5024866;28;20037;-58
2022/12/07 10:01:24;;;;;;;12.80;2.55;;;4.50;99.90;;;;;;5024348;28;20053;-58
2022/12/07 10:03:54;;;;;;;10.15;2.72;;;4.50;99.90;;;;;;5023489;28;20045;-59
2022/12/07 10:06:20;;;;;;;10.27;2.20;;;4.40;99.90;;;;;;5021888;28;20616;-58
2022/12/07 10:08:46;;;;;;;11.77;1.88;;;4.40;99.90;;;;;;5024365;28;20718;-57
2022/12/07 10:11:14;;;;;;;9.00;2.08;;;4.40;99.90;;;;;;5021625;28;20041;-58
2022/12/07 10:13:47;;;;;;;13.55;2.05;;;4.50;99.90;;;;;;5023844;28;20139;-59
2022/12/07 10:16:28;;;;;;;12.77;2.60;;;4.60;99.90;;;;;;5023320;28;20037;-57
2022/12/07 10:18:54;;;;;;;11.50;2.30;;;4.70;99.90;;;;;;5037789;28;20041;-57
2022/12/07 10:21:24;;;;;;;15.68;2.28;;;4.70;99.90;;;;;;5023357;28;20049;-58
2022/12/07 10:24:10;;;;;;;13.75;2.00;;;4.70;99.90;;;;;;5039213;28;20041;-59
2022/12/07 10:26:41;;;;;;;12.85;2.70;;;4.70;99.90;;;;;;5022511;28;20073;-57
2022/12/07 10:29:24;;;;;;;10.20;2.40;;;4.70;99.90;;;;;;5005564;28;20532;-59
2022/12/07 10:31:58;;;;;;;15.10;2.92;;;4.70;99.90;;;;;;5005203;28;20640;-57
2022/12/07 10:34:25;;;;;;;13.45;2.95;;;4.70;99.90;;;;;;5021253;28;20052;-57
2022/12/07 10:36:52;;;;;;;11.50;2.55;;;4.70;99.90;;;;;;5023095;28;20049;-58
2022/12/07 10:39:21;;;;;;;18.10;2.85;;;4.70;99.90;;;;;;5022318;28;20156;-57
2022/12/07 10:42:00;;;;;;;15.57;2.45;;;4.80;99.90;;;;;;5024542;28;20037;-57
2022/12/07 10:44:32;;;;;;;8.02;2.03;;;4.90;99.90;;;;;;5022207;28;20442;-59
2022/12/07 10:47:37;;;;;;;10.23;1.98;;;5.00;99.90;;;;;;5022449;28;20076;-59
2022/12/07 10:50:24;;;;;;;13.35;2.13;;;5.10;99.90;;;;;;5019891;28;20041;-59
2022/12/07 10:52:59;;;;;;;9.75;1.70;;;5.30;99.90;;;;;;5023511;28;20057;-58
2022/12/07 10:56:03;;;;;;;13.50;2.15;;;5.40;99.90;;;;;;5021905;28;20122;-57
2022/12/07 10:58:49;;;;;;;14.70;2.10;;;5.50;99.90;;;;;;5002843;28;20542;-60
2022/12/07 11:01:41;;;;;;;12.63;2.20;;;5.40;99.90;;;;;;5020741;28;20037;-58
2022/12/07 11:04:16;;;;;;;12.73;1.90;;;5.40;99.90;;;;;;5022507;28;20098;-59
2022/12/07 11:06:44;;;;;;;;;;;5.50;99.90;;;;;;5022502;28;20041;-57
2022/12/07 11:09:54;;;;;;;10.85;1.80;;;5.50;99.90;;;;;;5022596;28;19917;-59
2022/12/07 11:12:31;;;;;;;11.98;2.00;;;5.50;99.90;;;;;;5007624;28;20443;-59
2022/12/07 11:15:16;;;;;;;8.18;2.10;;;5.50;99.90;;;;;;5021767;28;20045;-58
2022/12/07 11:17:50;;;;;;;13.13;1.85;;;5.50;99.90;;;;;;5023242;28;20049;-58
2022/12/07 11:20:22;;;;;;;11.57;2.10;;;5.40;99.90;;;;;;5021327;28;20049;-59
2022/12/07 11:23:13;;;;;;;11.43;1.98;;;5.40;99.90;;;;;;5022349;28;20112;-58
2022/12/07 11:26:12;;;;;;;15.68;2.45;;;5.40;99.90;;;;;;5023035;28;20049;-60
2022/12/07 11:29:10;;;;;;;12.32;1.77;;;5.40;99.90;;;;;;5021788;28;20055;-57
2022/12/07 11:32:00;;;;;;;10.45;1.90;;;5.30;99.90;;;;;;5021332;28;20073;-62
2022/12/07 11:34:51;;;;;;;6.70;2.58;;;5.10;99.90;;;;;;5013103;28;20041;-60
2022/12/07 11:37:31;;;;;;;10.88;1.75;;;4.70;99.90;;;;;;5022048;28;20572;-60
2022/12/07 11:40:02;;;;;;;6.88;2.15;;;4.30;99.90;;;;;;5037155;28;20677;-59
2022/12/07 11:42:36;;;;;;;7.43;1.55;;;4.00;99.90;;;;;;5023272;28;20107;-60
2022/12/07 11:45:13;;;;;;;10.65;1.58;;;3.80;99.90;;;;;;5022666;28;20048;-59
2022/12/07 11:48:21;;;;;;;6.28;1.15;;;3.70;99.90;;;;;;5022466;28;20037;-59
2022/12/07 11:50:53;;;;;;;8.95;1.48;;;3.70;99.90;;;;;;4992293;28;20057;-58
2022/12/07 11:53:24;;;;;;;9.60;1.90;;;3.80;99.90;;;;;;5004481;28;20136;-58
2022/12/07 11:55:57;;;;;;;11.35;1.63;;;3.90;99.90;;;;;;5023576;28;20126;-58
2022/12/07 11:58:47;;;;;;;7.30;1.13;;;4.00;99.90;;;;;;5023255;28;20042;-59
2022/12/07 12:01:33;;;;;;;11.27;2.10;;;4.00;99.90;;;;;;5022692;28;20132;-58
2022/12/07 12:04:11;;;;;;;13.23;2.83;;;4.10;99.90;;;;;;5022032;28;20045;-60
2022/12/07 12:06:38;;;;;;;15.82;3.67;;;4.20;99.90;;;;;;5021835;28;20084;-58
2022/12/07 12:09:33;;;;;;;9.55;2.10;;;4.40;99.90;;;;;;5022061;28;20122;-58
2022/12/07 12:12:47;;;;;;;4.18;1.00;;;4.50;99.90;;;;;;5026573;28;20463;-59
2022/12/07 12:16:09;;;;;;;7.72;1.20;;;4.60;99.90;;;;;;5025708;28;20393;-59
2022/12/07 12:18:51;;;;;;;6.93;1.58;;;4.70;99.90;;;;;;4970660;28;20050;-57
2022/12/07 12:21:19;;;;;;;6.65;1.50;;;4.80;99.90;;;;;;5012900;28;20046;-58
2022/12/07 12:24:14;;;;;;;7.85;2.70;;;4.80;99.90;;;;;;5006331;28;20579;-57
2022/12/07 12:26:54;;;;;;;9.52;1.60;;;4.80;99.90;;;;;;5005012;28;20117;-58
2022/12/07 12:29:36;;;;;;;8.52;1.63;;;4.80;99.90;;;;;;5024889;28;20041;-58
2022/12/07 12:32:25;;;;;;;9.27;1.73;;;4.80;99.90;;;;;;5040694;28;20183;-58
2022/12/07 12:34:53;;;;;;;7.22;1.40;;;4.80;99.90;;;;;;5025276;28;20041;-57
2022/12/07 12:37:34;;;;;;;5.13;1.77;;;4.80;99.90;;;;;;5024948;28;20130;-58
2022/12/07 12:40:15;;;;;;;10.55;1.90;;;4.70;99.90;;;;;;5025400;28;20505;-57
2022/12/07 12:42:48;;;;;;;11.80;1.75;;;4.70;99.90;;;;;;5040808;28;20406;-59
2022/12/07 12:45:22;;;;;;;10.95;2.25;;;4.70;99.90;;;;;;5025016;28;20037;-58
2022/12/07 12:47:57;;;;;;;17.63;3.90;;;4.70;99.90;;;;;;5024931;28;20438;-58
2022/12/07 12:50:31;;;;;;;11.43;4.53;;;4.70;99.90;;;;;;5024009;28;20053;-58
2022/12/07 12:53:13;;;;;;;16.95;4.65;;;4.80;99.90;;;;;;5025286;28;20045;-57
2022/12/07 12:55:42;;;;;;;10.70;4.00;;;4.80;99.90;;;;;;5025140;28;20053;-58
2022/12/07 12:58:29;;;;;;;13.48;3.05;;;4.90;99.90;;;;;;5025534;28;20041;-57
2022/12/07 13:01:32;;;;;;;10.65;2.72;;;5.00;99.90;;;;;;5024924;28;20157;-62
2022/12/07 13:03:58;;;;;;;10.45;1.63;;;5.20;99.90;;;;;;5024334;28;20041;-59
2022/12/07 13:06:24;;;;;;;13.23;1.75;;;5.30;99.90;;;;;;5018190;28;20041;-57
2022/12/07 13:08:51;;;;;;;13.95;1.60;;;5.50;99.90;;;;;;5013821;28;20091;-57
2022/12/07 13:11:26;;;;;;;4.75;1.30;;;5.40;99.90;;;;;;5024547;28;20045;-57
2022/12/07 13:13:52;;;;;;;12.70;1.85;;;5.50;99.90;;;;;;5024128;28;20033;-59